sensor_id;sensor_type;location;lat;lon;timestamp;P1;durP1;ratioP1;P2;durP2;ratioP2
261;SDS011;114;48.260;10.988;2024-03-02T00:00:37;13.90;;;12.30;;
261;SDS011;114;48.260;10.988;2024-03-02T00:03:03;14.67;;;12.47;;
261;SDS011;114;48.260;10.988;2024-03-02T00:05:29;11.70;;;10.50;;
261;SDS011;114;48.260;10.988;2024-03-02T00:07:56;18.07;;;13.37;;
261;SDS011;114;48.260;10.988;2024-03-02T00:10:25;12.97;;;11.67;;
261;SDS011;114;48.260;10.988;2024-03-02T00:12:54;14.60;;;12.70;;
261;SDS011;114;48.260;10.988;2024-03-02T00:15:41;13.50;;;11.37;;
261;SDS011;114;48.260;10.988;2024-03-02T00:18:11;16.00;;;12.87;;
261;SDS011;114;48.260;10.988;2024-03-02T00:20:43;14.07;;;12.27;;
261;SDS011;114;48.260;10.988;2024-03-02T00:23:09;19.37;;;11.57;;
261;SDS011;114;48.260;10.988;2024-03-02T00:25:40;16.90;;;12.87;;
261;SDS011;114;48.260;10.988;2024-03-02T00:28:19;16.13;;;13.57;;
261;SDS011;114;48.260;10.988;2024-03-02T00:30:51;16.83;;;13.20;;
261;SDS011;114;48.260;10.988;2024-03-02T00:33:27;16.50;;;13.40;;
261;SDS011;114;48.260;10.988;2024-03-02T00:36:01;14.70;;;13.03;;
261;SDS011;114;48.260;10.988;2024-03-02T00:38:28;15.10;;;13.10;;
261;SDS011;114;48.260;10.988;2024-03-02T00:41:04;13.10;;;11.70;;
261;SDS011;114;48.260;10.988;2024-03-02T00:43:43;14.27;;;12.73;;
261;SDS011;114;48.260;10.988;2024-03-02T00:46:10;15.47;;;13.10;;
261;SDS011;114;48.260;10.988;2024-03-02T00:48:54;15.63;;;13.63;;
261;SDS011;114;48.260;10.988;2024-03-02T00:51:27;15.43;;;13.83;;
261;SDS011;114;48.260;10.988;2024-03-02T00:53:57;15.53;;;13.87;;
261;SDS011;114;48.260;10.988;2024-03-02T00:56:24;15.10;;;13.30;;
261;SDS011;114;48.260;10.988;2024-03-02T00:58:51;15.37;;;13.80;;
261;SDS011;114;48.260;10.988;2024-03-02T01:01:17;17.90;;;15.07;;
261;SDS011;114;48.260;10.988;2024-03-02T01:03:45;16.50;;;14.73;;
261;SDS011;114;48.260;10.988;2024-03-02T01:06:11;16.90;;;14.97;;
261;SDS011;114;48.260;10.988;2024-03-02T01:08:37;21.53;;;14.90;;
261;SDS011;114;48.260;10.988;2024-03-02T01:11:03;16.03;;;14.13;;
261;SDS011;114;48.260;10.988;2024-03-02T01:13:30;15.57;;;13.87;;
261;SDS011;114;48.260;10.988;2024-03-02T01:15:56;17.30;;;14.33;;
261;SDS011;114;48.260;10.988;2024-03-02T01:18:23;16.50;;;14.03;;
261;SDS011;114;48.260;10.988;2024-03-02T01:20:49;18.00;;;16.13;;
261;SDS011;114;48.260;10.988;2024-03-02T01:23:20;18.37;;;16.10;;
261;SDS011;114;48.260;10.988;2024-03-02T01:25:48;19.30;;;16.03;;
261;SDS011;114;48.260;10.988;2024-03-02T01:28:15;16.43;;;14.73;;
261;SDS011;114;48.260;10.988;2024-03-02T01:30:41;20.87;;;15.73;;
261;SDS011;114;48.260;10.988;2024-03-02T01:33:07;17.90;;;13.10;;
261;SDS011;114;48.260;10.988;2024-03-02T01:35:33;15.37;;;13.73;;
261;SDS011;114;48.260;10.988;2024-03-02T01:38:00;17.57;;;14.80;;
261;SDS011;114;48.260;10.988;2024-03-02T01:40:26;15.63;;;14.13;;
261;SDS011;114;48.260;10.988;2024-03-02T01:42:52;17.10;;;15.30;;
261;SDS011;114;48.260;10.988;2024-03-02T01:45:23;17.17;;;15.40;;
261;SDS011;114;48.260;10.988;2024-03-02T01:47:49;17.53;;;15.67;;
261;SDS011;114;48.260;10.988;2024-03-02T01:50:15;17.90;;;16.10;;
261;SDS011;114;48.260;10.988;2024-03-02T01:52:49;20.17;;;17.07;;
261;SDS011;114;48.260;10.988;2024-03-02T01:55:15;20.43;;;16.80;;
261;SDS011;114;48.260;10.988;2024-03-02T01:57:40;16.47;;;14.87;;
261;SDS011;114;48.260;10.988;2024-03-02T02:00:06;19.10;;;17.20;;
261;SDS011;114;48.260;10.988;2024-03-02T02:02:33;19.27;;;17.37;;
261;SDS011;114;48.260;10.988;2024-03-02T02:05:00;19.10;;;17.03;;
261;SDS011;114;48.260;10.988;2024-03-02T02:07:26;18.87;;;16.00;;
261;SDS011;114;48.260;10.988;2024-03-02T02:09:51;18.00;;;16.13;;
261;SDS011;114;48.260;10.988;2024-03-02T02:12:17;20.37;;;18.07;;
261;SDS011;114;48.260;10.988;2024-03-02T02:14:49;20.87;;;18.67;;
261;SDS011;114;48.260;10.988;2024-03-02T02:17:18;20.93;;;18.70;;
261;SDS011;114;48.260;10.988;2024-03-02T02:19:44;20.53;;;18.50;;
261;SDS011;114;48.260;10.988;2024-03-02T02:22:10;21.50;;;19.20;;
261;SDS011;114;48.260;10.988;2024-03-02T02:24:39;19.77;;;17.77;;
261;SDS011;114;48.260;10.988;2024-03-02T02:27:07;20.27;;;18.17;;
261;SDS011;114;48.260;10.988;2024-03-02T02:29:33;21.30;;;19.17;;
261;SDS011;114;48.260;10.988;2024-03-02T02:31:59;19.90;;;16.83;;
261;SDS011;114;48.260;10.988;2024-03-02T02:34:25;21.30;;;18.50;;
261;SDS011;114;48.260;10.988;2024-03-02T02:36:51;20.90;;;18.70;;
261;SDS011;114;48.260;10.988;2024-03-02T02:39:17;20.33;;;18.33;;
261;SDS011;114;48.260;10.988;2024-03-02T02:41:45;19.60;;;17.60;;
261;SDS011;114;48.260;10.988;2024-03-02T02:44:11;19.87;;;17.87;;
261;SDS011;114;48.260;10.988;2024-03-02T02:46:38;19.57;;;17.30;;
261;SDS011;114;48.260;10.988;2024-03-02T02:49:04;18.63;;;16.70;;
261;SDS011;114;48.260;10.988;2024-03-02T02:51:30;19.70;;;17.60;;
261;SDS011;114;48.260;10.988;2024-03-02T02:53:56;18.40;;;16.43;;
261;SDS011;114;48.260;10.988;2024-03-02T02:56:21;19.53;;;17.50;;
261;SDS011;114;48.260;10.988;2024-03-02T02:58:47;18.50;;;16.73;;
261;SDS011;114;48.260;10.988;2024-03-02T03:01:13;21.93;;;18.90;;
261;SDS011;114;48.260;10.988;2024-03-02T03:03:42;20.40;;;18.20;;
261;SDS011;114;48.260;10.988;2024-03-02T03:06:07;19.17;;;17.17;;
261;SDS011;114;48.260;10.988;2024-03-02T03:08:33;20.60;;;18.50;;
261;SDS011;114;48.260;10.988;2024-03-02T03:10:59;19.57;;;17.50;;
261;SDS011;114;48.260;10.988;2024-03-02T03:13:24;19.67;;;17.67;;
261;SDS011;114;48.260;10.988;2024-03-02T03:15:50;21.90;;;19.70;;
261;SDS011;114;48.260;10.988;2024-03-02T03:18:16;19.57;;;17.53;;
261;SDS011;114;48.260;10.988;2024-03-02T03:20:41;19.33;;;17.23;;
261;SDS011;114;48.260;10.988;2024-03-02T03:23:07;19.50;;;17.50;;
261;SDS011;114;48.260;10.988;2024-03-02T03:25:33;19.83;;;17.83;;
261;SDS011;114;48.260;10.988;2024-03-02T03:27:59;21.23;;;17.40;;
261;SDS011;114;48.260;10.988;2024-03-02T03:30:27;20.70;;;17.93;;
261;SDS011;114;48.260;10.988;2024-03-02T03:32:52;20.10;;;17.43;;
261;SDS011;114;48.260;10.988;2024-03-02T03:35:18;20.03;;;17.90;;
261;SDS011;114;48.260;10.988;2024-03-02T03:37:44;20.33;;;18.23;;
261;SDS011;114;48.260;10.988;2024-03-02T03:40:09;21.70;;;18.80;;
261;SDS011;114;48.260;10.988;2024-03-02T03:42:36;19.67;;;17.50;;
261;SDS011;114;48.260;10.988;2024-03-02T03:45:02;17.70;;;16.00;;
261;SDS011;114;48.260;10.988;2024-03-02T03:47:28;17.00;;;15.20;;
261;SDS011;114;48.260;10.988;2024-03-02T03:49:54;18.63;;;16.03;;
261;SDS011;114;48.260;10.988;2024-03-02T03:52:20;18.43;;;16.37;;
261;SDS011;114;48.260;10.988;2024-03-02T03:54:46;19.20;;;17.30;;
261;SDS011;114;48.260;10.988;2024-03-02T03:57:12;19.27;;;17.27;;
261;SDS011;114;48.260;10.988;2024-03-02T03:59:37;18.70;;;16.80;;
261;SDS011;114;48.260;10.988;2024-03-02T04:02:03;19.67;;;17.57;;
261;SDS011;114;48.260;10.988;2024-03-02T04:04:29;17.13;;;15.40;;
261;SDS011;114;48.260;10.988;2024-03-02T04:06:55;22.17;;;18.07;;
261;SDS011;114;48.260;10.988;2024-03-02T04:09:20;19.57;;;17.57;;
261;SDS011;114;48.260;10.988;2024-03-02T04:11:46;19.00;;;17.00;;
261;SDS011;114;48.260;10.988;2024-03-02T04:14:12;18.33;;;16.50;;
261;SDS011;114;48.260;10.988;2024-03-02T04:16:38;17.23;;;15.60;;
261;SDS011;114;48.260;10.988;2024-03-02T04:19:05;17.47;;;15.70;;
261;SDS011;114;48.260;10.988;2024-03-02T04:21:31;18.77;;;16.87;;
261;SDS011;114;48.260;10.988;2024-03-02T04:23:56;17.73;;;15.97;;
261;SDS011;114;48.260;10.988;2024-03-02T04:26:24;17.10;;;15.40;;
261;SDS011;114;48.260;10.988;2024-03-02T04:28:53;18.73;;;16.80;;
261;SDS011;114;48.260;10.988;2024-03-02T04:31:19;17.87;;;16.17;;
261;SDS011;114;48.260;10.988;2024-03-02T04:33:45;17.23;;;15.43;;
261;SDS011;114;48.260;10.988;2024-03-02T04:36:12;20.13;;;15.63;;
261;SDS011;114;48.260;10.988;2024-03-02T04:38:38;18.40;;;16.50;;
261;SDS011;114;48.260;10.988;2024-03-02T04:41:04;17.13;;;15.43;;
261;SDS011;114;48.260;10.988;2024-03-02T04:43:33;17.17;;;15.57;;
261;SDS011;114;48.260;10.988;2024-03-02T04:45:59;17.47;;;15.70;;
261;SDS011;114;48.260;10.988;2024-03-02T04:48:26;16.97;;;15.17;;
261;SDS011;114;48.260;10.988;2024-03-02T04:50:53;22.03;;;16.73;;
261;SDS011;114;48.260;10.988;2024-03-02T04:53:20;18.00;;;15.63;;
261;SDS011;114;48.260;10.988;2024-03-02T04:55:45;20.10;;;16.83;;
261;SDS011;114;48.260;10.988;2024-03-02T04:58:20;17.53;;;15.73;;
261;SDS011;114;48.260;10.988;2024-03-02T05:00:45;17.87;;;16.23;;
261;SDS011;114;48.260;10.988;2024-03-02T05:03:11;17.67;;;15.87;;
261;SDS011;114;48.260;10.988;2024-03-02T05:05:38;17.10;;;15.30;;
261;SDS011;114;48.260;10.988;2024-03-02T05:08:04;16.40;;;14.73;;
261;SDS011;114;48.260;10.988;2024-03-02T05:10:30;15.63;;;14.03;;
261;SDS011;114;48.260;10.988;2024-03-02T05:12:55;15.37;;;13.87;;
261;SDS011;114;48.260;10.988;2024-03-02T05:15:24;15.57;;;13.97;;
261;SDS011;114;48.260;10.988;2024-03-02T05:17:51;17.77;;;16.03;;
261;SDS011;114;48.260;10.988;2024-03-02T05:20:16;17.50;;;15.80;;
261;SDS011;114;48.260;10.988;2024-03-02T05:22:42;16.20;;;14.60;;
261;SDS011;114;48.260;10.988;2024-03-02T05:25:08;15.67;;;14.17;;
261;SDS011;114;48.260;10.988;2024-03-02T05:27:37;17.83;;;16.03;;
261;SDS011;114;48.260;10.988;2024-03-02T05:30:02;17.63;;;15.80;;
261;SDS011;114;48.260;10.988;2024-03-02T05:32:31;14.80;;;13.40;;
261;SDS011;114;48.260;10.988;2024-03-02T05:34:57;15.43;;;13.97;;
261;SDS011;114;48.260;10.988;2024-03-02T05:37:22;17.70;;;16.00;;
261;SDS011;114;48.260;10.988;2024-03-02T05:39:48;15.97;;;14.40;;
261;SDS011;114;48.260;10.988;2024-03-02T05:42:14;16.80;;;15.03;;
261;SDS011;114;48.260;10.988;2024-03-02T05:44:39;17.17;;;15.37;;
261;SDS011;114;48.260;10.988;2024-03-02T05:47:05;19.23;;;15.77;;
261;SDS011;114;48.260;10.988;2024-03-02T05:49:33;15.80;;;14.20;;
261;SDS011;114;48.260;10.988;2024-03-02T05:52:02;17.37;;;15.57;;
261;SDS011;114;48.260;10.988;2024-03-02T05:54:28;16.40;;;14.80;;
261;SDS011;114;48.260;10.988;2024-03-02T05:56:54;18.27;;;16.57;;
261;SDS011;114;48.260;10.988;2024-03-02T05:59:19;17.10;;;15.33;;
261;SDS011;114;48.260;10.988;2024-03-02T06:01:46;18.50;;;16.50;;
261;SDS011;114;48.260;10.988;2024-03-02T06:04:13;17.93;;;16.13;;
261;SDS011;114;48.260;10.988;2024-03-02T06:06:42;19.20;;;17.10;;
261;SDS011;114;48.260;10.988;2024-03-02T06:09:08;20.53;;;16.27;;
261;SDS011;114;48.260;10.988;2024-03-02T06:11:37;25.80;;;15.50;;
261;SDS011;114;48.260;10.988;2024-03-02T06:14:04;17.27;;;15.43;;
261;SDS011;114;48.260;10.988;2024-03-02T06:16:31;23.93;;;14.77;;
261;SDS011;114;48.260;10.988;2024-03-02T06:18:58;16.27;;;12.80;;
261;SDS011;114;48.260;10.988;2024-03-02T06:21:25;16.00;;;14.40;;
261;SDS011;114;48.260;10.988;2024-03-02T06:23:52;91.17;;;16.43;;
261;SDS011;114;48.260;10.988;2024-03-02T06:26:18;65.90;;;15.37;;
261;SDS011;114;48.260;10.988;2024-03-02T06:28:44;154.43;;;16.47;;
261;SDS011;114;48.260;10.988;2024-03-02T06:31:11;82.43;;;13.10;;
261;SDS011;114;48.260;10.988;2024-03-02T06:33:37;267.53;;;12.30;;
261;SDS011;114;48.260;10.988;2024-03-02T06:36:03;72.23;;;11.43;;
261;SDS011;114;48.260;10.988;2024-03-02T06:38:30;13.17;;;10.77;;
261;SDS011;114;48.260;10.988;2024-03-02T06:40:59;23.27;;;12.10;;
261;SDS011;114;48.260;10.988;2024-03-02T06:43:25;32.77;;;11.53;;
261;SDS011;114;48.260;10.988;2024-03-02T06:45:50;12.53;;;11.17;;
261;SDS011;114;48.260;10.988;2024-03-02T06:48:17;14.20;;;11.87;;
261;SDS011;114;48.260;10.988;2024-03-02T06:50:46;12.90;;;11.70;;
261;SDS011;114;48.260;10.988;2024-03-02T06:53:15;13.57;;;12.17;;
261;SDS011;114;48.260;10.988;2024-03-02T06:55:43;13.40;;;11.63;;
261;SDS011;114;48.260;10.988;2024-03-02T06:58:12;11.83;;;10.83;;
261;SDS011;114;48.260;10.988;2024-03-02T07:00:40;14.07;;;12.77;;
261;SDS011;114;48.260;10.988;2024-03-02T07:03:06;14.67;;;13.20;;
261;SDS011;114;48.260;10.988;2024-03-02T07:05:32;13.23;;;12.03;;
261;SDS011;114;48.260;10.988;2024-03-02T07:07:58;10.93;;;10.03;;
261;SDS011;114;48.260;10.988;2024-03-02T07:10:25;12.57;;;11.40;;
261;SDS011;114;48.260;10.988;2024-03-02T07:12:50;11.73;;;10.73;;
261;SDS011;114;48.260;10.988;2024-03-02T07:15:20;16.53;;;10.47;;
261;SDS011;114;48.260;10.988;2024-03-02T07:17:54;10.50;;;9.70;;
261;SDS011;114;48.260;10.988;2024-03-02T07:20:20;10.30;;;9.50;;
261;SDS011;114;48.260;10.988;2024-03-02T07:22:46;9.43;;;8.70;;
261;SDS011;114;48.260;10.988;2024-03-02T07:25:13;10.63;;;9.83;;
261;SDS011;114;48.260;10.988;2024-03-02T07:27:40;10.37;;;9.47;;
261;SDS011;114;48.260;10.988;2024-03-02T07:30:06;9.10;;;8.30;;
261;SDS011;114;48.260;10.988;2024-03-02T07:32:34;10.10;;;9.30;;
261;SDS011;114;48.260;10.988;2024-03-02T07:35:00;9.10;;;8.40;;
261;SDS011;114;48.260;10.988;2024-03-02T07:37:26;9.10;;;8.30;;
261;SDS011;114;48.260;10.988;2024-03-02T07:39:52;10.37;;;9.47;;
261;SDS011;114;48.260;10.988;2024-03-02T07:42:18;7.83;;;7.20;;
261;SDS011;114;48.260;10.988;2024-03-02T07:44:44;7.07;;;6.60;;
261;SDS011;114;48.260;10.988;2024-03-02T07:47:10;7.00;;;6.37;;
261;SDS011;114;48.260;10.988;2024-03-02T07:49:38;6.53;;;6.03;;
261;SDS011;114;48.260;10.988;2024-03-02T07:52:04;6.30;;;5.83;;
261;SDS011;114;48.260;10.988;2024-03-02T07:54:31;5.93;;;5.53;;
261;SDS011;114;48.260;10.988;2024-03-02T07:56:56;5.53;;;5.23;;
261;SDS011;114;48.260;10.988;2024-03-02T07:59:23;6.30;;;5.70;;
261;SDS011;114;48.260;10.988;2024-03-02T08:01:49;5.40;;;5.00;;
261;SDS011;114;48.260;10.988;2024-03-02T08:04:16;6.50;;;5.90;;
261;SDS011;114;48.260;10.988;2024-03-02T08:06:42;5.63;;;5.13;;
261;SDS011;114;48.260;10.988;2024-03-02T08:09:09;5.53;;;5.23;;
261;SDS011;114;48.260;10.988;2024-03-02T08:11:35;7.93;;;4.80;;
261;SDS011;114;48.260;10.988;2024-03-02T08:14:02;4.87;;;4.57;;
261;SDS011;114;48.260;10.988;2024-03-02T08:16:28;5.30;;;4.43;;
261;SDS011;114;48.260;10.988;2024-03-02T08:18:56;4.20;;;3.80;;
261;SDS011;114;48.260;10.988;2024-03-02T08:21:25;3.67;;;3.47;;
261;SDS011;114;48.260;10.988;2024-03-02T08:23:57;4.07;;;3.87;;
261;SDS011;114;48.260;10.988;2024-03-02T08:26:23;4.30;;;4.00;;
261;SDS011;114;48.260;10.988;2024-03-02T08:28:49;4.77;;;4.47;;
261;SDS011;114;48.260;10.988;2024-03-02T08:31:15;7.90;;;4.03;;
261;SDS011;114;48.260;10.988;2024-03-02T08:33:42;4.53;;;4.23;;
261;SDS011;114;48.260;10.988;2024-03-02T08:36:07;4.77;;;4.30;;
261;SDS011;114;48.260;10.988;2024-03-02T08:38:34;5.07;;;4.73;;
261;SDS011;114;48.260;10.988;2024-03-02T08:41:00;5.30;;;4.90;;
261;SDS011;114;48.260;10.988;2024-03-02T08:43:26;5.33;;;4.93;;
261;SDS011;114;48.260;10.988;2024-03-02T08:45:52;4.57;;;4.23;;
261;SDS011;114;48.260;10.988;2024-03-02T08:48:17;5.23;;;4.80;;
261;SDS011;114;48.260;10.988;2024-03-02T08:50:43;5.00;;;4.60;;
261;SDS011;114;48.260;10.988;2024-03-02T08:53:09;4.60;;;4.37;;
261;SDS011;114;48.260;10.988;2024-03-02T08:55:34;4.30;;;4.00;;
261;SDS011;114;48.260;10.988;2024-03-02T08:58:00;4.83;;;3.67;;
261;SDS011;114;48.260;10.988;2024-03-02T09:00:26;7.23;;;4.23;;
261;SDS011;114;48.260;10.988;2024-03-02T09:02:53;4.10;;;3.80;;
261;SDS011;114;48.260;10.988;2024-03-02T09:05:19;3.80;;;3.60;;
261;SDS011;114;48.260;10.988;2024-03-02T09:07:45;3.80;;;3.60;;
261;SDS011;114;48.260;10.988;2024-03-02T09:10:10;3.43;;;3.20;;
261;SDS011;114;48.260;10.988;2024-03-02T09:12:36;3.20;;;3.00;;
261;SDS011;114;48.260;10.988;2024-03-02T09:15:03;3.67;;;3.47;;
261;SDS011;114;48.260;10.988;2024-03-02T09:17:29;13.20;;;3.20;;
261;SDS011;114;48.260;10.988;2024-03-02T09:19:55;3.40;;;3.20;;
261;SDS011;114;48.260;10.988;2024-03-02T09:22:21;3.10;;;3.00;;
261;SDS011;114;48.260;10.988;2024-03-02T09:24:47;3.63;;;3.43;;
261;SDS011;114;48.260;10.988;2024-03-02T09:27:12;3.83;;;3.63;;
261;SDS011;114;48.260;10.988;2024-03-02T09:29:38;3.47;;;3.27;;
261;SDS011;114;48.260;10.988;2024-03-02T09:32:05;3.43;;;3.17;;
261;SDS011;114;48.260;10.988;2024-03-02T09:34:32;2.53;;;2.43;;
261;SDS011;114;48.260;10.988;2024-03-02T09:36:58;2.90;;;2.80;;
261;SDS011;114;48.260;10.988;2024-03-02T09:39:24;3.23;;;2.93;;
261;SDS011;114;48.260;10.988;2024-03-02T09:41:50;2.97;;;2.87;;
261;SDS011;114;48.260;10.988;2024-03-02T09:44:16;2.73;;;2.63;;
261;SDS011;114;48.260;10.988;2024-03-02T09:46:43;3.13;;;2.93;;
261;SDS011;114;48.260;10.988;2024-03-02T09:49:10;3.10;;;2.90;;
261;SDS011;114;48.260;10.988;2024-03-02T09:51:39;2.20;;;2.10;;
261;SDS011;114;48.260;10.988;2024-03-02T09:54:07;2.07;;;1.97;;
261;SDS011;114;48.260;10.988;2024-03-02T09:56:33;2.27;;;2.17;;
261;SDS011;114;48.260;10.988;2024-03-02T09:58:59;2.53;;;2.33;;
261;SDS011;114;48.260;10.988;2024-03-02T10:01:25;2.47;;;2.37;;
261;SDS011;114;48.260;10.988;2024-03-02T10:03:52;2.67;;;2.57;;
261;SDS011;114;48.260;10.988;2024-03-02T10:06:22;2.27;;;2.17;;
261;SDS011;114;48.260;10.988;2024-03-02T10:08:50;2.73;;;2.63;;
261;SDS011;114;48.260;10.988;2024-03-02T10:11:29;2.93;;;2.73;;
261;SDS011;114;48.260;10.988;2024-03-02T10:14:04;2.73;;;2.53;;
261;SDS011;114;48.260;10.988;2024-03-02T10:16:34;3.20;;;3.03;;
261;SDS011;114;48.260;10.988;2024-03-02T10:24:20;2.93;;;2.73;;
261;SDS011;114;48.260;10.988;2024-03-02T10:26:47;4.30;;;3.40;;
261;SDS011;114;48.260;10.988;2024-03-02T10:29:13;4.20;;;3.90;;
261;SDS011;114;48.260;10.988;2024-03-02T10:31:44;7.63;;;6.60;;
261;SDS011;114;48.260;10.988;2024-03-02T10:34:11;5.47;;;5.07;;
261;SDS011;114;48.260;10.988;2024-03-02T10:36:42;5.27;;;4.80;;
261;SDS011;114;48.260;10.988;2024-03-02T10:39:12;7.77;;;5.10;;
261;SDS011;114;48.260;10.988;2024-03-02T10:41:39;5.10;;;4.70;;
261;SDS011;114;48.260;10.988;2024-03-02T10:44:07;4.30;;;4.00;;
261;SDS011;114;48.260;10.988;2024-03-02T10:49:06;4.30;;;4.00;;
261;SDS011;114;48.260;10.988;2024-03-02T10:51:33;4.93;;;4.50;;
261;SDS011;114;48.260;10.988;2024-03-02T10:54:01;4.57;;;4.27;;
261;SDS011;114;48.260;10.988;2024-03-02T10:56:30;3.73;;;3.53;;
261;SDS011;114;48.260;10.988;2024-03-02T11:01:31;3.90;;;3.00;;
261;SDS011;114;48.260;10.988;2024-03-02T11:03:58;4.03;;;3.73;;
261;SDS011;114;48.260;10.988;2024-03-02T11:06:31;3.50;;;3.30;;
261;SDS011;114;48.260;10.988;2024-03-02T11:09:04;4.90;;;4.53;;
261;SDS011;114;48.260;10.988;2024-03-02T11:11:35;4.27;;;3.97;;
261;SDS011;114;48.260;10.988;2024-03-02T11:14:07;3.70;;;3.40;;
261;SDS011;114;48.260;10.988;2024-03-02T11:16:37;4.03;;;3.73;;
261;SDS011;114;48.260;10.988;2024-03-02T11:19:09;4.50;;;4.17;;
261;SDS011;114;48.260;10.988;2024-03-02T11:21:41;4.80;;;4.40;;
261;SDS011;114;48.260;10.988;2024-03-02T11:24:28;4.53;;;4.13;;
261;SDS011;114;48.260;10.988;2024-03-02T11:26:57;5.70;;;5.20;;
261;SDS011;114;48.260;10.988;2024-03-02T11:32:01;6.20;;;5.70;;
261;SDS011;114;48.260;10.988;2024-03-02T11:34:30;6.53;;;5.20;;
261;SDS011;114;48.260;10.988;2024-03-02T11:37:06;8.23;;;6.30;;
261;SDS011;114;48.260;10.988;2024-03-02T11:39:32;8.60;;;7.80;;
261;SDS011;114;48.260;10.988;2024-03-02T11:42:01;10.37;;;7.93;;
261;SDS011;114;48.260;10.988;2024-03-02T11:44:28;10.83;;;7.57;;
261;SDS011;114;48.260;10.988;2024-03-02T11:47:01;7.63;;;6.90;;
261;SDS011;114;48.260;10.988;2024-03-02T11:52:04;5.20;;;4.20;;
261;SDS011;114;48.260;10.988;2024-03-02T11:54:32;5.67;;;5.17;;
261;SDS011;114;48.260;10.988;2024-03-02T11:57:02;8.67;;;5.83;;
261;SDS011;114;48.260;10.988;2024-03-02T11:59:31;7.20;;;6.50;;
261;SDS011;114;48.260;10.988;2024-03-02T12:01:57;8.27;;;7.43;;
261;SDS011;114;48.260;10.988;2024-03-02T12:04:24;6.93;;;6.33;;
261;SDS011;114;48.260;10.988;2024-03-02T12:06:59;7.17;;;6.53;;
261;SDS011;114;48.260;10.988;2024-03-02T12:09:26;7.73;;;7.00;;
261;SDS011;114;48.260;10.988;2024-03-02T12:14:35;8.43;;;7.53;;
261;SDS011;114;48.260;10.988;2024-03-02T12:17:03;7.97;;;6.40;;
261;SDS011;114;48.260;10.988;2024-03-02T12:19:30;7.87;;;7.07;;
261;SDS011;114;48.260;10.988;2024-03-02T12:21:57;10.37;;;6.97;;
261;SDS011;114;48.260;10.988;2024-03-02T12:24:26;11.77;;;8.20;;
261;SDS011;114;48.260;10.988;2024-03-02T12:26:53;10.00;;;8.40;;
261;SDS011;114;48.260;10.988;2024-03-02T12:29:20;11.30;;;8.83;;
261;SDS011;114;48.260;10.988;2024-03-02T12:31:52;11.20;;;9.37;;
261;SDS011;114;48.260;10.988;2024-03-02T12:34:18;11.77;;;8.90;;
261;SDS011;114;48.260;10.988;2024-03-02T12:36:48;10.00;;;8.33;;
261;SDS011;114;48.260;10.988;2024-03-02T12:39:18;9.30;;;7.40;;
261;SDS011;114;48.260;10.988;2024-03-02T12:41:48;8.83;;;7.90;;
261;SDS011;114;48.260;10.988;2024-03-02T12:44:15;10.70;;;8.60;;
261;SDS011;114;48.260;10.988;2024-03-02T12:46:41;9.50;;;8.20;;
261;SDS011;114;48.260;10.988;2024-03-02T12:49:09;9.87;;;8.90;;
261;SDS011;114;48.260;10.988;2024-03-02T12:51:39;12.17;;;9.20;;
261;SDS011;114;48.260;10.988;2024-03-02T12:54:11;11.80;;;10.57;;
261;SDS011;114;48.260;10.988;2024-03-02T12:56:38;11.30;;;10.07;;
261;SDS011;114;48.260;10.988;2024-03-02T12:59:05;11.03;;;9.33;;
261;SDS011;114;48.260;10.988;2024-03-02T13:01:31;13.70;;;10.23;;
261;SDS011;114;48.260;10.988;2024-03-02T13:03:57;15.37;;;11.20;;
261;SDS011;114;48.260;10.988;2024-03-02T13:06:24;14.60;;;9.57;;
261;SDS011;114;48.260;10.988;2024-03-02T13:08:53;11.73;;;10.53;;
261;SDS011;114;48.260;10.988;2024-03-02T13:11:20;13.40;;;10.73;;
261;SDS011;114;48.260;10.988;2024-03-02T13:13:48;14.40;;;12.10;;
261;SDS011;114;48.260;10.988;2024-03-02T13:16:14;11.43;;;9.77;;
261;SDS011;114;48.260;10.988;2024-03-02T13:18:41;13.93;;;10.23;;
261;SDS011;114;48.260;10.988;2024-03-02T13:21:07;12.70;;;11.40;;
261;SDS011;114;48.260;10.988;2024-03-02T13:23:36;15.30;;;12.87;;
261;SDS011;114;48.260;10.988;2024-03-02T13:26:01;11.57;;;10.10;;
261;SDS011;114;48.260;10.988;2024-03-02T13:28:27;21.70;;;12.10;;
261;SDS011;114;48.260;10.988;2024-03-02T13:30:55;14.00;;;12.03;;
261;SDS011;114;48.260;10.988;2024-03-02T13:33:22;14.70;;;12.63;;
261;SDS011;114;48.260;10.988;2024-03-02T13:35:49;14.10;;;11.83;;
261;SDS011;114;48.260;10.988;2024-03-02T13:38:19;12.47;;;11.17;;
261;SDS011;114;48.260;10.988;2024-03-02T13:40:46;15.80;;;11.60;;
261;SDS011;114;48.260;10.988;2024-03-02T13:43:16;15.67;;;11.97;;
261;SDS011;114;48.260;10.988;2024-03-02T13:45:43;13.83;;;10.30;;
261;SDS011;114;48.260;10.988;2024-03-02T13:48:09;13.40;;;10.90;;
261;SDS011;114;48.260;10.988;2024-03-02T13:50:35;12.80;;;10.40;;
261;SDS011;114;48.260;10.988;2024-03-02T13:53:01;13.77;;;11.07;;
261;SDS011;114;48.260;10.988;2024-03-02T13:55:31;12.60;;;11.30;;
261;SDS011;114;48.260;10.988;2024-03-02T13:57:57;19.53;;;10.73;;
261;SDS011;114;48.260;10.988;2024-03-02T14:00:23;11.70;;;10.43;;
261;SDS011;114;48.260;10.988;2024-03-02T14:02:49;16.00;;;11.47;;
261;SDS011;114;48.260;10.988;2024-03-02T14:05:15;12.10;;;10.87;;
261;SDS011;114;48.260;10.988;2024-03-02T14:07:41;12.23;;;10.93;;
261;SDS011;114;48.260;10.988;2024-03-02T14:10:07;13.37;;;10.90;;
261;SDS011;114;48.260;10.988;2024-03-02T14:12:36;16.70;;;10.90;;
261;SDS011;114;48.260;10.988;2024-03-02T14:15:03;15.10;;;11.93;;
261;SDS011;114;48.260;10.988;2024-03-02T14:17:30;14.33;;;12.77;;
261;SDS011;114;48.260;10.988;2024-03-02T14:19:59;18.17;;;11.07;;
261;SDS011;114;48.260;10.988;2024-03-02T14:22:26;15.60;;;11.77;;
261;SDS011;114;48.260;10.988;2024-03-02T14:24:51;16.47;;;12.00;;
261;SDS011;114;48.260;10.988;2024-03-02T14:27:17;16.60;;;11.80;;
261;SDS011;114;48.260;10.988;2024-03-02T14:29:46;18.43;;;12.23;;
261;SDS011;114;48.260;10.988;2024-03-02T14:32:12;13.40;;;10.70;;
261;SDS011;114;48.260;10.988;2024-03-02T14:34:37;21.33;;;13.23;;
261;SDS011;114;48.260;10.988;2024-03-02T14:37:03;11.23;;;9.80;;
261;SDS011;114;48.260;10.988;2024-03-02T14:39:31;16.23;;;11.20;;
261;SDS011;114;48.260;10.988;2024-03-02T14:41:59;17.00;;;10.50;;
261;SDS011;114;48.260;10.988;2024-03-02T14:44:26;11.93;;;10.70;;
261;SDS011;114;48.260;10.988;2024-03-02T14:46:53;11.33;;;9.90;;
261;SDS011;114;48.260;10.988;2024-03-02T14:49:19;12.37;;;10.53;;
261;SDS011;114;48.260;10.988;2024-03-02T14:51:45;15.50;;;10.40;;
261;SDS011;114;48.260;10.988;2024-03-02T14:54:11;14.43;;;9.83;;
261;SDS011;114;48.260;10.988;2024-03-02T14:56:38;10.80;;;9.67;;
261;SDS011;114;48.260;10.988;2024-03-02T14:59:04;16.23;;;10.67;;
261;SDS011;114;48.260;10.988;2024-03-02T15:01:31;10.97;;;9.33;;
261;SDS011;114;48.260;10.988;2024-03-02T15:03:57;12.10;;;9.13;;
261;SDS011;114;48.260;10.988;2024-03-02T15:06:23;12.87;;;9.10;;
261;SDS011;114;48.260;10.988;2024-03-02T15:08:50;13.33;;;8.73;;
261;SDS011;114;48.260;10.988;2024-03-02T15:11:16;12.00;;;8.67;;
261;SDS011;114;48.260;10.988;2024-03-02T15:13:42;10.90;;;8.53;;
261;SDS011;114;48.260;10.988;2024-03-02T15:18:38;11.00;;;8.87;;
261;SDS011;114;48.260;10.988;2024-03-02T15:21:05;11.13;;;8.27;;
261;SDS011;114;48.260;10.988;2024-03-02T15:23:31;13.73;;;8.60;;
261;SDS011;114;48.260;10.988;2024-03-02T15:25:59;13.80;;;8.20;;
261;SDS011;114;48.260;10.988;2024-03-02T15:28:27;25.53;;;9.97;;
261;SDS011;114;48.260;10.988;2024-03-02T15:30:53;13.10;;;9.40;;